sensor_id;sensor_type;location;lat;lon;timestamp;pressure;altitude;pressure_sealevel;temperature;humidity
53874;BME280;62246;50.938;4.058;2022-11-30T00:02:15;102440.03;;;3.76;100.00
53874;BME280;62246;50.938;4.058;2022-11-30T00:04:41;102447.16;;;3.70;100.00
53874;BME280;62246;50.938;4.058;2022-11-30T00:07:06;102445.44;;;3.69;100.00
53874;BME280;62246;50.938;4.058;2022-11-30T00:09:32;102440.22;;;3.67;100.00
53874;BME280;62246;50.938;4.058;2022-11-30T00:11:58;102433.91;;;3.77;100.00
53874;BME280;62246;50.938;4.058;2022-11-30T00:14:23;102432.09;;;3.79;100.00
53874;BME280;62246;50.938;4.058;2022-11-30T00:16:48;102430.28;;;3.83;100.00
53874;BME280;62246;50.938;4.058;2022-11-30T00:19:14;102434.75;;;3.78;100.00
53874;BME280;62246;50.938;4.058;2022-11-30T00:21:42;102437.50;;;3.72;100.00
53874;BME280;62246;50.938;4.058;2022-11-30T00:24:07;102429.81;;;3.64;100.00
53874;BME280;62246;50.938;4.058;2022-11-30T00:26:33;102434.25;;;3.60;100.00
53874;BME280;62246;50.938;4.058;2022-11-30T00:28:58;102427.16;;;3.65;100.00
53874;BME280;62246;50.938;4.058;2022-11-30T00:31:24;102432.44;;;3.62;100.00
53874;BME280;62246;50.938;4.058;2022-11-30T00:33:49;102424.53;;;3.65;100.00
53874;BME280;62246;50.938;4.058;2022-11-30T00:36:17;102423.66;;;3.65;100.00
53874;BME280;62246;50.938;4.058;2022-11-30T00:38:44;102427.13;;;3.67;100.00
53874;BME280;62246;50.938;4.058;2022-11-30T00:41:10;102424.47;;;3.69;100.00
53874;BME280;62246;50.938;4.058;2022-11-30T00:43:36;102419.13;;;3.75;100.00
53874;BME280;62246;50.938;4.058;2022-11-30T00:46:01;102415.38;;;3.87;100.00
53874;BME280;62246;50.938;4.058;2022-11-30T00:48:27;102416.91;;;3.95;100.00
53874;BME280;62246;50.938;4.058;2022-11-30T00:50:53;102418.72;;;3.93;100.00
53874;BME280;62246;50.938;4.058;2022-11-30T00:53:19;102417.75;;;3.97;100.00
53874;BME280;62246;50.938;4.058;2022-11-30T00:55:46;102417.06;;;3.89;100.00
53874;BME280;62246;50.938;4.058;2022-11-30T00:58:12;102421.59;;;3.82;100.00
53874;BME280;62246;50.938;4.058;2022-11-30T01:00:38;102414.59;;;3.81;100.00
53874;BME280;62246;50.938;4.058;2022-11-30T01:03:04;102420.69;;;3.82;100.00
53874;BME280;62246;50.938;4.058;2022-11-30T01:05:32;102419.00;;;3.79;100.00
53874;BME280;62246;50.938;4.058;2022-11-30T01:08:01;102427.78;;;3.77;100.00
53874;BME280;62246;50.938;4.058;2022-11-30T01:10:27;102421.38;;;3.90;100.00
53874;BME280;62246;50.938;4.058;2022-11-30T01:12:53;102426.75;;;3.86;100.00
53874;BME280;62246;50.938;4.058;2022-11-30T01:15:18;102422.47;;;3.81;100.00
53874;BME280;62246;50.938;4.058;2022-11-30T01:17:44;102423.41;;;3.79;100.00
53874;BME280;62246;50.938;4.058;2022-11-30T01:20:09;102426.94;;;3.76;100.00
53874;BME280;62246;50.938;4.058;2022-11-30T01:22:35;102426.13;;;3.73;100.00
53874;BME280;62246;50.938;4.058;2022-11-30T01:25:01;102428.78;;;3.71;100.00
53874;BME280;62246;50.938;4.058;2022-11-30T01:27:26;102422.50;;;3.80;100.00
53874;BME280;62246;50.938;4.058;2022-11-30T01:29:52;102434.50;;;3.90;100.00
53874;BME280;62246;50.938;4.058;2022-11-30T01:32:17;102432.78;;;3.89;100.00
53874;BME280;62246;50.938;4.058;2022-11-30T01:34:43;102428.53;;;3.83;100.00
53874;BME280;62246;50.938;4.058;2022-11-30T01:37:08;102434.50;;;3.90;100.00
53874;BME280;62246;50.938;4.058;2022-11-30T01:39:34;102428.44;;;3.88;100.00
53874;BME280;62246;50.938;4.058;2022-11-30T01:41:59;102430.16;;;3.89;100.00
53874;BME280;62246;50.938;4.058;2022-11-30T01:49:31;102436.03;;;4.00;100.00
53874;BME280;62246;50.938;4.058;2022-11-30T01:52:05;102442.88;;;4.08;100.00
53874;BME280;62246;50.938;4.058;2022-11-30T01:54:36;102436.63;;;4.13;100.00
53874;BME280;62246;50.938;4.058;2022-11-30T01:57:24;102433.13;;;4.14;100.00
53874;BME280;62246;50.938;4.058;2022-11-30T01:59:52;102447.22;;;4.07;100.00
53874;BME280;62246;50.938;4.058;2022-11-30T02:02:20;102441.16;;;4.07;100.00
53874;BME280;62246;50.938;4.058;2022-11-30T02:04:49;102434.25;;;4.03;100.00
53874;BME280;62246;50.938;4.058;2022-11-30T02:07:14;102440.41;;;4.00;100.00
53874;BME280;62246;50.938;4.058;2022-11-30T02:09:44;102442.19;;;3.98;100.00
53874;BME280;62246;50.938;4.058;2022-11-30T02:12:29;102446.66;;;3.93;100.00
53874;BME280;62246;50.938;4.058;2022-11-30T02:14:59;102436.31;;;3.88;100.00
53874;BME280;62246;50.938;4.058;2022-11-30T02:20:30;102441.63;;;3.83;100.00
53874;BME280;62246;50.938;4.058;2022-11-30T02:30:42;102441.31;;;3.99;100.00
53874;BME280;62246;50.938;4.058;2022-11-30T02:33:13;102445.66;;;4.00;100.00
53874;BME280;62246;50.938;4.058;2022-11-30T02:35:41;102438.59;;;4.04;100.00
53874;BME280;62246;50.938;4.058;2022-11-30T02:38:09;102438.66;;;4.00;100.00
53874;BME280;62246;50.938;4.058;2022-11-30T02:40:35;102443.69;;;4.10;100.00
53874;BME280;62246;50.938;4.058;2022-11-30T02:43:01;102437.63;;;4.08;100.00
53874;BME280;62246;50.938;4.058;2022-11-30T02:48:10;102447.13;;;4.13;100.00
53874;BME280;62246;50.938;4.058;2022-11-30T02:50:53;102452.28;;;4.16;100.00
53874;BME280;62246;50.938;4.058;2022-11-30T02:53:21;102461.78;;;4.22;100.00
53874;BME280;62246;50.938;4.058;2022-11-30T02:55:47;102459.03;;;4.27;100.00
53874;BME280;62246;50.938;4.058;2022-11-30T02:58:13;102452.09;;;4.24;100.00
53874;BME280;62246;50.938;4.058;2022-11-30T03:00:39;102449.59;;;4.20;100.00
53874;BME280;62246;50.938;4.058;2022-11-30T03:03:05;102447.97;;;4.14;100.00
53874;BME280;62246;50.938;4.058;2022-11-30T03:05:30;102454.94;;;4.15;100.00
53874;BME280;62246;50.938;4.058;2022-11-30T03:07:56;102449.72;;;4.13;100.00
53874;BME280;62246;50.938;4.058;2022-11-30T03:10:21;102458.44;;;4.14;100.00
53874;BME280;62246;50.938;4.058;2022-11-30T03:12:47;102456.72;;;4.14;100.00
53874;BME280;62246;50.938;4.058;2022-11-30T03:15:13;102460.13;;;4.18;100.00
53874;BME280;62246;50.938;4.058;2022-11-30T03:17:38;102453.16;;;4.17;100.00
53874;BME280;62246;50.938;4.058;2022-11-30T03:20:04;102462.75;;;4.18;100.00
53874;BME280;62246;50.938;4.058;2022-11-30T03:22:30;102465.16;;;4.27;100.00
53874;BME280;62246;50.938;4.058;2022-11-30T03:24:55;102460.88;;;4.23;100.00
53874;BME280;62246;50.938;4.058;2022-11-30T03:27:21;102461.84;;;4.19;100.00
53874;BME280;62246;50.938;4.058;2022-11-30T03:29:47;102454.00;;;4.17;100.00
53874;BME280;62246;50.938;4.058;2022-11-30T03:32:12;102452.22;;;4.20;100.00
53874;BME280;62246;50.938;4.058;2022-11-30T03:34:38;102450.47;;;4.20;100.00
53874;BME280;62246;50.938;4.058;2022-11-30T03:37:03;102444.41;;;4.18;100.00
53874;BME280;62246;50.938;4.058;2022-11-30T03:39:29;102457.41;;;4.23;100.00
53874;BME280;62246;50.938;4.058;2022-11-30T03:41:54;102455.75;;;4.19;100.00
53874;BME280;62246;50.938;4.058;2022-11-30T03:44:20;102458.44;;;4.14;100.00
53874;BME280;62246;50.938;4.058;2022-11-30T03:46:45;102457.63;;;4.12;100.00
53874;BME280;62246;50.938;4.058;2022-11-30T03:49:11;102447.91;;;4.17;100.00
53874;BME280;62246;50.938;4.058;2022-11-30T03:51:36;102458.31;;;4.20;100.00
53874;BME280;62246;50.938;4.058;2022-11-30T03:54:02;102455.81;;;4.15;100.00
53874;BME280;62246;50.938;4.058;2022-11-30T03:56:30;102451.47;;;4.14;100.00
53874;BME280;62246;50.938;4.058;2022-11-30T03:58:56;102467.16;;;4.16;100.00
53874;BME280;62246;50.938;4.058;2022-11-30T04:01:21;102472.34;;;4.17;100.00
53874;BME280;62246;50.938;4.058;2022-11-30T04:03:49;102464.53;;;4.16;100.00
53874;BME280;62246;50.938;4.058;2022-11-30T04:06:15;102464.41;;;4.22;100.00
53874;BME280;62246;50.938;4.058;2022-11-30T04:08:41;102465.22;;;4.24;100.00
53874;BME280;62246;50.938;4.058;2022-11-30T04:11:07;102454.88;;;4.18;100.00
53874;BME280;62246;50.938;4.058;2022-11-30T04:13:33;102459.28;;;4.16;100.00
53874;BME280;62246;50.938;4.058;2022-11-30T04:15:59;102454.72;;;4.24;100.00
53874;BME280;62246;50.938;4.058;2022-11-30T04:18:27;102455.50;;;4.29;100.00
53874;BME280;62246;50.938;4.058;2022-11-30T04:20:54;102457.41;;;4.23;100.00
53874;BME280;62246;50.938;4.058;2022-11-30T04:23:20;102457.41;;;4.23;100.00
53874;BME280;62246;50.938;4.058;2022-11-30T04:25:46;102456.59;;;4.19;100.00
53874;BME280;62246;50.938;4.058;2022-11-30T04:28:12;102455.94;;;4.09;100.00
53874;BME280;62246;50.938;4.058;2022-11-30T04:30:38;102455.97;;;4.08;100.00
53874;BME280;62246;50.938;4.058;2022-11-30T04:33:04;102465.53;;;4.09;100.00
53874;BME280;62246;50.938;4.058;2022-11-30T04:35:30;102469.00;;;4.11;100.00
53874;BME280;62246;50.938;4.058;2022-11-30T04:37:56;102477.63;;;4.16;100.00
53874;BME280;62246;50.938;4.058;2022-11-30T04:40:22;102471.50;;;4.17;100.00
53874;BME280;62246;50.938;4.058;2022-11-30T04:42:47;102466.31;;;4.15;100.00
53874;BME280;62246;50.938;4.058;2022-11-30T04:45:13;102474.97;;;4.17;100.00
53874;BME280;62246;50.938;4.058;2022-11-30T04:47:38;102475.81;;;4.20;100.00
53874;BME280;62246;50.938;4.058;2022-11-30T04:50:05;102472.28;;;4.21;100.00
53874;BME280;62246;50.938;4.058;2022-11-30T04:52:32;102475.78;;;4.21;100.00
53874;BME280;62246;50.938;4.058;2022-11-30T04:54:57;102470.50;;;4.23;100.00
53874;BME280;62246;50.938;4.058;2022-11-30T04:57:23;102474.72;;;4.28;100.00
53874;BME280;62246;50.938;4.058;2022-11-30T04:59:49;102469.44;;;4.31;100.00
53874;BME280;62246;50.938;4.058;2022-11-30T05:02:14;102460.88;;;4.23;100.00
53874;BME280;62246;50.938;4.058;2022-11-30T05:04:40;102474.72;;;4.28;100.00
53874;BME280;62246;50.938;4.058;2022-11-30T05:07:06;102464.16;;;4.33;100.00
53874;BME280;62246;50.938;4.058;2022-11-30T05:09:31;102467.88;;;4.23;100.00
53874;BME280;62246;50.938;4.058;2022-11-30T05:11:57;102462.69;;;4.21;100.00
53874;BME280;62246;50.938;4.058;2022-11-30T05:14:22;102470.38;;;4.29;100.00
53874;BME280;62246;50.938;4.058;2022-11-30T05:16:48;102459.94;;;4.26;100.00
53874;BME280;62246;50.938;4.058;2022-11-30T05:19:14;102469.50;;;4.28;100.00
53874;BME280;62246;50.938;4.058;2022-11-30T05:21:40;102468.69;;;4.26;100.00
53874;BME280;62246;50.938;4.058;2022-11-30T05:24:06;102469.53;;;4.27;100.00
53874;BME280;62246;50.938;4.058;2022-11-30T05:26:32;102477.22;;;4.34;100.00
53874;BME280;62246;50.938;4.058;2022-11-30T05:28:57;102475.31;;;4.41;100.00
53874;BME280;62246;50.938;4.058;2022-11-30T05:31:23;102467.38;;;4.46;100.00
53874;BME280;62246;50.938;4.058;2022-11-30T05:33:50;102474.28;;;4.48;100.00
53874;BME280;62246;50.938;4.058;2022-11-30T05:36:15;102472.56;;;4.47;100.00
53874;BME280;62246;50.938;4.058;2022-11-30T05:38:41;102471.78;;;4.44;100.00
53874;BME280;62246;50.938;4.058;2022-11-30T05:41:06;102475.41;;;4.38;100.00
53874;BME280;62246;50.938;4.058;2022-11-30T05:43:32;102469.41;;;4.33;100.00
53874;BME280;62246;50.938;4.058;2022-11-30T05:46:02;102477.28;;;4.33;100.00
53874;BME280;62246;50.938;4.058;2022-11-30T05:48:28;102471.88;;;4.39;100.00
53874;BME280;62246;50.938;4.058;2022-11-30T05:50:53;102476.97;;;4.45;100.00
53874;BME280;62246;50.938;4.058;2022-11-30T05:53:19;102471.81;;;4.42;100.00
53874;BME280;62246;50.938;4.058;2022-11-30T05:55:45;102473.69;;;4.37;100.00
53874;BME280;62246;50.938;4.058;2022-11-30T05:58:10;102473.75;;;4.34;100.00
53874;BME280;62246;50.938;4.058;2022-11-30T06:00:35;102482.44;;;4.36;100.00
53874;BME280;62246;50.938;4.058;2022-11-30T06:03:01;102488.47;;;4.40;100.00
53874;BME280;62246;50.938;4.058;2022-11-30T06:05:26;102489.28;;;4.42;100.00
53874;BME280;62246;50.938;4.058;2022-11-30T06:07:53;102491.94;;;4.40;100.00
53874;BME280;62246;50.938;4.058;2022-11-30T06:10:18;102490.34;;;4.34;100.00
53874;BME280;62246;50.938;4.058;2022-11-30T06:12:44;102493.94;;;4.30;100.00
53874;BME280;62246;50.938;4.058;2022-11-30T06:15:10;102492.28;;;4.26;100.00
53874;BME280;62246;50.938;4.058;2022-11-30T06:17:36;102492.13;;;4.34;100.00
53874;BME280;62246;50.938;4.058;2022-11-30T06:20:04;102492.00;;;4.39;100.00
53874;BME280;62246;50.938;4.058;2022-11-30T06:22:30;102500.69;;;4.41;100.00
53874;BME280;62246;50.938;4.058;2022-11-30T06:24:55;102498.00;;;4.44;100.00
53874;BME280;62246;50.938;4.058;2022-11-30T06:27:20;102510.31;;;4.40;100.00
53874;BME280;62246;50.938;4.058;2022-11-30T06:29:46;102509.53;;;4.35;100.00
53874;BME280;62246;50.938;4.058;2022-11-30T06:32:12;102518.28;;;4.36;100.00
53874;BME280;62246;50.938;4.058;2022-11-30T06:34:37;102512.22;;;4.33;100.00
53874;BME280;62246;50.938;4.058;2022-11-30T06:37:03;102519.06;;;4.39;100.00
53874;BME280;62246;50.938;4.058;2022-11-30T06:39:28;102510.28;;;4.42;100.00
53874;BME280;62246;50.938;4.058;2022-11-30T06:41:54;102513.78;;;4.42;100.00
53874;BME280;62246;50.938;4.058;2022-11-30T06:44:19;102511.25;;;4.38;100.00
53874;BME280;62246;50.938;4.058;2022-11-30T06:46:46;102517.41;;;4.35;100.00
53874;BME280;62246;50.938;4.058;2022-11-30T06:49:12;102525.31;;;4.33;100.00
53874;BME280;62246;50.938;4.058;2022-11-30T06:51:37;102527.22;;;4.27;100.00
53874;BME280;62246;50.938;4.058;2022-11-30T06:54:07;102523.78;;;4.23;100.00
53874;BME280;62246;50.938;4.058;2022-11-30T06:56:33;102521.22;;;4.20;100.00
53874;BME280;62246;50.938;4.058;2022-11-30T06:58:58;102526.59;;;4.14;100.00
53874;BME280;62246;50.938;4.058;2022-11-30T07:01:24;102520.53;;;4.12;100.00
53874;BME280;62246;50.938;4.058;2022-11-30T07:03:49;102532.72;;;4.14;100.00
53874;BME280;62246;50.938;4.058;2022-11-30T07:06:14;102532.00;;;4.08;100.00
53874;BME280;62246;50.938;4.058;2022-11-30T07:08:41;102540.63;;;4.11;100.00
53874;BME280;62246;50.938;4.058;2022-11-30T07:11:11;102536.31;;;4.10;100.00
53874;BME280;62246;50.938;4.058;2022-11-30T07:13:37;102538.88;;;4.12;100.00
53874;BME280;62246;50.938;4.058;2022-11-30T07:16:06;102536.31;;;4.09;100.00
53874;BME280;62246;50.938;4.058;2022-11-30T07:18:32;102544.09;;;4.13;100.00
53874;BME280;62246;50.938;4.058;2022-11-30T07:20:59;102543.25;;;4.13;100.00
53874;BME280;62246;50.938;4.058;2022-11-30T07:23:25;102544.19;;;4.09;100.00
53874;BME280;62246;50.938;4.058;2022-11-30T07:26:09;102545.06;;;4.09;100.00
53874;BME280;62246;50.938;4.058;2022-11-30T07:28:40;102545.13;;;4.05;100.00
53874;BME280;62246;50.938;4.058;2022-11-30T07:31:18;102548.72;;;4.00;100.00
53874;BME280;62246;50.938;4.058;2022-11-30T07:33:45;102554.81;;;4.03;100.00
53874;BME280;62246;50.938;4.058;2022-11-30T07:36:11;102554.63;;;4.12;100.00
53874;BME280;62246;50.938;4.058;2022-11-30T07:38:36;102560.59;;;4.19;100.00
53874;BME280;62246;50.938;4.058;2022-11-30T07:41:02;102568.50;;;4.17;100.00
53874;BME280;62246;50.938;4.058;2022-11-30T07:43:28;102575.50;;;4.15;100.00
53874;BME280;62246;50.938;4.058;2022-11-30T07:45:54;102575.47;;;4.16;100.00
53874;BME280;62246;50.938;4.058;2022-11-30T07:48:20;102571.19;;;4.12;100.00
53874;BME280;62246;50.938;4.058;2022-11-30T07:50:46;102584.25;;;4.14;100.00
53874;BME280;62246;50.938;4.058;2022-11-30T07:53:12;102578.97;;;4.17;100.00
53874;BME280;62246;50.938;4.058;2022-11-30T07:55:38;102576.41;;;4.15;100.00
53874;BME280;62246;50.938;4.058;2022-11-30T07:58:03;102579.78;;;4.19;100.00
53874;BME280;62246;50.938;4.058;2022-11-30T08:00:29;102583.34;;;4.18;100.00
53874;BME280;62246;50.938;4.058;2022-11-30T08:02:54;102582.19;;;4.30;100.00
53874;BME280;62246;50.938;4.058;2022-11-30T08:05:19;102590.88;;;4.33;100.00
53874;BME280;62246;50.938;4.058;2022-11-30T08:07:50;102599.50;;;4.39;100.00
53874;BME280;62246;50.938;4.058;2022-11-30T08:10:17;102593.41;;;4.38;100.00
53874;BME280;62246;50.938;4.058;2022-11-30T08:12:43;102605.69;;;4.36;100.00
53874;BME280;62246;50.938;4.058;2022-11-30T08:15:09;102603.00;;;4.38;100.00
53874;BME280;62246;50.938;4.058;2022-11-30T08:17:34;102606.38;;;4.44;100.00
53874;BME280;62246;50.938;4.058;2022-11-30T08:20:00;102603.78;;;4.43;100.00
53874;BME280;62246;50.938;4.058;2022-11-30T08:22:25;102599.41;;;4.45;100.00
53874;BME280;62246;50.938;4.058;2022-11-30T08:24:51;102606.25;;;4.50;100.00
53874;BME280;62246;50.938;4.058;2022-11-30T08:27:16;102605.34;;;4.53;100.00
53874;BME280;62246;50.938;4.058;2022-11-30T08:29:42;102615.75;;;4.56;100.00
53874;BME280;62246;50.938;4.058;2022-11-30T08:32:07;102610.50;;;4.58;100.00
53874;BME280;62246;50.938;4.058;2022-11-30T08:34:32;102615.78;;;4.55;100.00
53874;BME280;62246;50.938;4.058;2022-11-30T08:36:58;102608.78;;;4.55;100.00
53874;BME280;62246;50.938;4.058;2022-11-30T08:39:23;102607.06;;;4.54;100.00
53874;BME280;62246;50.938;4.058;2022-11-30T08:41:52;102608.66;;;4.61;100.00
53874;BME280;62246;50.938;4.058;2022-11-30T08:44:18;102624.44;;;4.60;100.00
53874;BME280;62246;50.938;4.058;2022-11-30T08:46:43;102618.28;;;4.61;100.00
53874;BME280;62246;50.938;4.058;2022-11-30T08:49:09;102611.22;;;4.64;100.00
53874;BME280;62246;50.938;4.058;2022-11-30T08:51:34;102610.41;;;4.61;100.00
53874;BME280;62246;50.938;4.058;2022-11-30T08:54:00;102607.75;;;4.62;100.00
53874;BME280;62246;50.938;4.058;2022-11-30T08:56:25;102616.31;;;4.71;100.00
53874;BME280;62246;50.938;4.058;2022-11-30T08:58:51;102615.53;;;4.67;100.00
53874;BME280;62246;50.938;4.058;2022-11-30T09:01:19;102620.75;;;4.69;100.00
53874;BME280;62246;50.938;4.058;2022-11-30T09:03:45;102626.00;;;4.69;100.00
53874;BME280;62246;50.938;4.058;2022-11-30T09:06:20;102625.06;;;4.70;100.00
53874;BME280;62246;50.938;4.058;2022-11-30T09:08:47;102628.47;;;4.75;100.00
53874;BME280;62246;50.938;4.058;2022-11-30T09:11:18;102625.84;;;4.76;100.00
53874;BME280;62246;50.938;4.058;2022-11-30T09:13:44;102628.31;;;4.82;100.00
53874;BME280;62246;50.938;4.058;2022-11-30T09:16:11;102627.38;;;4.85;100.00
53874;BME280;62246;50.938;4.058;2022-11-30T09:18:37;102630.84;;;4.87;100.00
53874;BME280;62246;50.938;4.058;2022-11-30T09:21:04;102631.44;;;4.98;100.00
53874;BME280;62246;50.938;4.058;2022-11-30T09:23:31;102628.06;;;4.93;100.00
53874;BME280;62246;50.938;4.058;2022-11-30T09:26:01;102633.31;;;4.93;100.00
53874;BME280;62246;50.938;4.058;2022-11-30T09:28:27;102635.81;;;4.99;100.00
53874;BME280;62246;50.938;4.058;2022-11-30T09:30:59;102629.72;;;4.99;100.00
53874;BME280;62246;50.938;4.058;2022-11-30T09:33:25;102630.53;;;5.01;100.00
53874;BME280;62246;50.938;4.058;2022-11-30T09:35:58;102626.88;;;5.08;100.00
53874;BME280;62246;50.938;4.058;2022-11-30T09:38:24;102626.84;;;5.10;100.00
53874;BME280;62246;50.938;4.058;2022-11-30T09:40:59;102626.75;;;5.13;100.00
53874;BME280;62246;50.938;4.058;2022-11-30T09:43:29;102636.44;;;5.09;100.00
53874;BME280;62246;50.938;4.058;2022-11-30T09:45:59;102630.47;;;5.04;100.00
53874;BME280;62246;50.938;4.058;2022-11-30T09:51:10;102635.69;;;5.06;100.00
53874;BME280;62246;50.938;4.058;2022-11-30T09:53:42;102633.00;;;5.07;100.00
53874;BME280;62246;50.938;4.058;2022-11-30T09:56:38;102625.09;;;5.09;100.00
53874;BME280;62246;50.938;4.058;2022-11-30T10:01:30;102635.25;;;5.24;100.00
53874;BME280;62246;50.938;4.058;2022-11-30T10:03:55;102629.19;;;5.21;100.00
53874;BME280;62246;50.938;4.058;2022-11-30T10:06:27;102635.28;;;5.23;100.00
53874;BME280;62246;50.938;4.058;2022-11-30T10:11:55;102632.28;;;5.00;100.00
53874;BME280;62246;50.938;4.058;2022-11-30T10:20:58;102621.97;;;4.93;100.00
53874;BME280;62246;50.938;4.058;2022-11-30T10:26:38;102627.47;;;5.20;100.00
53874;BME280;62246;50.938;4.058;2022-11-30T10:29:35;102618.19;;;5.05;100.00
53874;BME280;62246;50.938;4.058;2022-11-30T10:32:19;102620.03;;;5.01;100.00
53874;BME280;62246;50.938;4.058;2022-11-30T10:34:52;102622.50;;;5.07;100.00
53874;BME280;62246;50.938;4.058;2022-11-30T10:37:32;102623.38;;;5.08;100.00
53874;BME280;62246;50.938;4.058;2022-11-30T10:40:18;102630.13;;;5.18;100.00
53874;BME280;62246;50.938;4.058;2022-11-30T10:42:52;102625.28;;;5.39;100.00
53874;BME280;62246;50.938;4.058;2022-11-30T10:45:22;102631.91;;;5.54;100.00
53874;BME280;62246;50.938;4.058;2022-11-30T10:50:15;102627.16;;;5.68;100.00
53874;BME280;62246;50.938;4.058;2022-11-30T10:52:47;102628.91;;;5.69;100.00
53874;BME280;62246;50.938;4.058;2022-11-30T10:55:20;102632.47;;;5.66;100.00
53874;BME280;62246;50.938;4.058;2022-11-30T10:57:49;102628.19;;;5.62;100.00
53874;BME280;62246;50.938;4.058;2022-11-30T11:00:18;102620.41;;;5.58;100.00
53874;BME280;62246;50.938;4.058;2022-11-30T11:02:46;102624.81;;;5.57;100.00
53874;BME280;62246;50.938;4.058;2022-11-30T11:05:21;102625.34;;;5.72;100.00
53874;BME280;62246;50.938;4.058;2022-11-30T11:08:34;102623.50;;;5.74;100.00
53874;BME280;62246;50.938;4.058;2022-11-30T11:13:18;102618.97;;;5.46;100.00
53874;BME280;62246;50.938;4.058;2022-11-30T11:15:58;102622.72;;;5.36;100.00
53874;BME280;62246;50.938;4.058;2022-11-30T11:18:25;102619.91;;;5.43;100.00
53874;BME280;62246;50.938;4.058;2022-11-30T11:21:06;102617.41;;;5.39;100.00
53874;BME280;62246;50.938;4.058;2022-11-30T11:23:40;102613.09;;;5.36;100.00
53874;BME280;62246;50.938;4.058;2022-11-30T11:26:15;102624.56;;;5.32;100.00
53874;BME280;62246;50.938;4.058;2022-11-30T11:28:48;102621.94;;;5.30;100.00
53874;BME280;62246;50.938;4.058;2022-11-30T11:33:56;102621.44;;;5.52;100.00
53874;BME280;62246;50.938;4.058;2022-11-30T11:36:30;102621.72;;;5.76;100.00
53874;BME280;62246;50.938;4.058;2022-11-30T11:38:57;102623.44;;;5.77;100.00
53874;BME280;62246;50.938;4.058;2022-11-30T11:44:17;102610.06;;;5.86;100.00
53874;BME280;62246;50.938;4.058;2022-11-30T11:46:56;102611.63;;;5.93;100.00
53874;BME280;62246;50.938;4.058;2022-11-30T11:49:25;102614.16;;;5.96;100.00
53874;BME280;62246;50.938;4.058;2022-11-30T11:54:52;102607.44;;;5.86;100.00
53874;BME280;62246;50.938;4.058;2022-11-30T11:57:24;102611.00;;;5.83;100.00
53874;BME280;62246;50.938;4.058;2022-11-30T12:00:02;102598.72;;;6.17;100.00
53874;BME280;62246;50.938;4.058;2022-11-30T12:02:49;102597.75;;;6.51;98.46
53874;BME280;62246;50.938;4.058;2022-11-30T12:11:22;102598.78;;;6.47;96.68
53874;BME280;62246;50.938;4.058;2022-11-30T12:13:50;102603.84;;;6.22;99.56
53874;BME280;62246;50.938;4.058;2022-11-30T12:18:56;102608.16;;;5.91;100.00
53874;BME280;62246;50.938;4.058;2022-11-30T12:21:40;102601.56;;;6.09;100.00
53874;BME280;62246;50.938;4.058;2022-11-30T12:27:30;102594.69;;;6.37;100.00
53874;BME280;62246;50.938;4.058;2022-11-30T12:33:04;102599.84;;;6.40;99.82
53874;BME280;62246;50.938;4.058;2022-11-30T12:43:50;102600.28;;;6.54;100.00
53874;BME280;62246;50.938;4.058;2022-11-30T12:52:26;102602.94;;;6.54;99.55
53874;BME280;62246;50.938;4.058;2022-11-30T12:55:04;102598.91;;;6.72;99.13
53874;BME280;62246;50.938;4.058;2022-11-30T12:57:42;102596.25;;;6.72;97.61
53874;BME280;62246;50.938;4.058;2022-11-30T13:00:13;102598.63;;;6.80;97.25
53874;BME280;62246;50.938;4.058;2022-11-30T13:05:32;102591.47;;;6.85;95.79
53874;BME280;62246;50.938;4.058;2022-11-30T13:08:14;102587.31;;;6.78;97.30
53874;BME280;62246;50.938;4.058;2022-11-30T13:10:44;102588.09;;;6.80;97.24
53874;BME280;62246;50.938;4.058;2022-11-30T13:13:18;102593.91;;;6.91;97.94
53874;BME280;62246;50.938;4.058;2022-11-30T13:15:46;102583.25;;;6.96;97.58
53874;BME280;62246;50.938;4.058;2022-11-30T13:18:18;102589.91;;;7.06;97.89
53874;BME280;62246;50.938;4.058;2022-11-30T13:21:48;102589.19;;;7.03;97.01
53874;BME280;62246;50.938;4.058;2022-11-30T13:24:04;102588.47;;;6.97;97.04
53874;BME280;62246;50.938;4.058;2022-11-30T13:26:48;102602.63;;;6.93;97.44
53874;BME280;62246;50.938;4.058;2022-11-30T13:32:05;102599.63;;;6.76;98.25
53874;BME280;62246;50.938;4.058;2022-11-30T13:34:33;102599.69;;;6.74;98.04
53874;BME280;62246;50.938;4.058;2022-11-30T13:37:25;102606.56;;;6.78;98.40
53874;BME280;62246;50.938;4.058;2022-11-30T13:39:54;102611.16;;;7.02;97.98
53874;BME280;62246;50.938;4.058;2022-11-30T13:42:37;102607.16;;;7.16;95.81
53874;BME280;62246;50.938;4.058;2022-11-30T14:02:55;102625.75;;;7.39;94.14
53874;BME280;62246;50.938;4.058;2022-11-30T14:05:24;102625.78;;;7.10;94.81
53874;BME280;62246;50.938;4.058;2022-11-30T14:10:45;102625.09;;;6.75;96.44
53874;BME280;62246;50.938;4.058;2022-11-30T14:20:56;102643.09;;;6.91;97.33
53874;BME280;62246;50.938;4.058;2022-11-30T14:23:31;102649.31;;;6.88;97.57
53874;BME280;62246;50.938;4.058;2022-11-30T14:26:15;102638.00;;;6.84;98.10
53874;BME280;62246;50.938;4.058;2022-11-30T14:29:08;102640.94;;;6.74;97.63
53874;BME280;62246;50.938;4.058;2022-11-30T14:31:41;102642.81;;;6.70;98.68
53874;BME280;62246;50.938;4.058;2022-11-30T14:34:23;102647.16;;;6.71;98.85
53874;BME280;62246;50.938;4.058;2022-11-30T14:36:55;102643.66;;;6.71;99.20
53874;BME280;62246;50.938;4.058;2022-11-30T14:39:33;102648.25;;;6.64;99.82
53874;BME280;62246;50.938;4.058;2022-11-30T14:42:00;102653.66;;;6.59;99.84
53874;BME280;62246;50.938;4.058;2022-11-30T14:44:26;102657.44;;;6.49;100.00
53874;BME280;62246;50.938;4.058;2022-11-30T14:46:52;102651.59;;;6.39;100.00
53874;BME280;62246;50.938;4.058;2022-11-30T14:49:22;102656.88;;;6.38;100.00
53874;BME280;62246;50.938;4.058;2022-11-30T14:51:59;102648.13;;;6.37;100.00